sensor_id;sensor_type;location;lat;lon;timestamp;P1;durP1;ratioP1;P2;durP2;ratioP2
1416;SDS011;703;51.162;13.574;2022-08-19T00:00:12;23.07;;;16.60;;
1416;SDS011;703;51.162;13.574;2022-08-19T00:02:39;21.30;;;16.17;;
1416;SDS011;703;51.162;13.574;2022-08-19T00:05:05;19.90;;;15.87;;
1416;SDS011;703;51.162;13.574;2022-08-19T00:07:32;22.43;;;17.00;;
1416;SDS011;703;51.162;13.574;2022-08-19T00:09:57;21.87;;;16.57;;
1416;SDS011;703;51.162;13.574;2022-08-19T00:12:23;22.60;;;18.50;;
1416;SDS011;703;51.162;13.574;2022-08-19T00:14:48;21.67;;;16.30;;
1416;SDS011;703;51.162;13.574;2022-08-19T00:17:14;22.30;;;16.50;;
1416;SDS011;703;51.162;13.574;2022-08-19T00:19:40;20.37;;;16.53;;
1416;SDS011;703;51.162;13.574;2022-08-19T00:22:06;22.67;;;17.37;;
1416;SDS011;703;51.162;13.574;2022-08-19T00:24:33;21.60;;;17.30;;
1416;SDS011;703;51.162;13.574;2022-08-19T00:27:00;21.00;;;17.20;;
1416;SDS011;703;51.162;13.574;2022-08-19T00:29:26;23.57;;;17.67;;
1416;SDS011;703;51.162;13.574;2022-08-19T00:31:52;25.50;;;17.47;;
1416;SDS011;703;51.162;13.574;2022-08-19T00:34:21;21.83;;;17.50;;
1416;SDS011;703;51.162;13.574;2022-08-19T00:36:48;24.53;;;20.10;;
1416;SDS011;703;51.162;13.574;2022-08-19T00:39:14;23.57;;;19.00;;
1416;SDS011;703;51.162;13.574;2022-08-19T00:41:41;26.23;;;20.27;;
1416;SDS011;703;51.162;13.574;2022-08-19T00:44:12;24.67;;;19.63;;
1416;SDS011;703;51.162;13.574;2022-08-19T00:46:42;24.13;;;19.30;;
1416;SDS011;703;51.162;13.574;2022-08-19T00:49:12;23.83;;;19.10;;
1416;SDS011;703;51.162;13.574;2022-08-19T00:51:45;23.00;;;19.30;;
1416;SDS011;703;51.162;13.574;2022-08-19T00:54:15;26.13;;;18.23;;
1416;SDS011;703;51.162;13.574;2022-08-19T00:56:41;23.47;;;17.90;;
1416;SDS011;703;51.162;13.574;2022-08-19T00:59:08;23.13;;;19.13;;
1416;SDS011;703;51.162;13.574;2022-08-19T01:01:35;23.90;;;18.27;;
1416;SDS011;703;51.162;13.574;2022-08-19T01:04:02;21.93;;;17.13;;
1416;SDS011;703;51.162;13.574;2022-08-19T01:06:28;21.80;;;18.17;;
1416;SDS011;703;51.162;13.574;2022-08-19T01:08:57;22.80;;;18.10;;
1416;SDS011;703;51.162;13.574;2022-08-19T01:11:24;30.50;;;21.07;;
1416;SDS011;703;51.162;13.574;2022-08-19T01:13:50;23.97;;;19.17;;
1416;SDS011;703;51.162;13.574;2022-08-19T01:16:18;23.83;;;17.83;;
1416;SDS011;703;51.162;13.574;2022-08-19T01:18:46;22.27;;;18.23;;
1416;SDS011;703;51.162;13.574;2022-08-19T01:21:18;23.20;;;18.50;;
1416;SDS011;703;51.162;13.574;2022-08-19T01:23:55;24.10;;;19.70;;
1416;SDS011;703;51.162;13.574;2022-08-19T01:26:21;22.83;;;18.73;;
1416;SDS011;703;51.162;13.574;2022-08-19T01:28:50;24.20;;;19.80;;
1416;SDS011;703;51.162;13.574;2022-08-19T01:31:18;27.07;;;23.30;;
1416;SDS011;703;51.162;13.574;2022-08-19T01:33:47;24.80;;;20.97;;
1416;SDS011;703;51.162;13.574;2022-08-19T01:36:16;23.40;;;18.53;;
1416;SDS011;703;51.162;13.574;2022-08-19T01:39:03;24.63;;;21.30;;
1416;SDS011;703;51.162;13.574;2022-08-19T01:41:31;27.93;;;20.50;;
1416;SDS011;703;51.162;13.574;2022-08-19T01:43:56;25.77;;;21.53;;
1416;SDS011;703;51.162;13.574;2022-08-19T01:46:22;26.10;;;22.13;;
1416;SDS011;703;51.162;13.574;2022-08-19T01:48:48;27.23;;;21.33;;
1416;SDS011;703;51.162;13.574;2022-08-19T01:51:14;26.67;;;19.37;;
1416;SDS011;703;51.162;13.574;2022-08-19T01:53:40;24.10;;;18.80;;
1416;SDS011;703;51.162;13.574;2022-08-19T01:56:06;23.30;;;18.80;;
1416;SDS011;703;51.162;13.574;2022-08-19T01:58:34;25.30;;;18.37;;
1416;SDS011;703;51.162;13.574;2022-08-19T02:01:04;24.43;;;20.30;;
1416;SDS011;703;51.162;13.574;2022-08-19T02:03:32;25.83;;;17.17;;
1416;SDS011;703;51.162;13.574;2022-08-19T02:06:00;25.47;;;19.80;;
1416;SDS011;703;51.162;13.574;2022-08-19T02:08:34;23.20;;;19.80;;
1416;SDS011;703;51.162;13.574;2022-08-19T02:11:01;22.43;;;18.30;;
1416;SDS011;703;51.162;13.574;2022-08-19T02:13:28;25.60;;;18.50;;
1416;SDS011;703;51.162;13.574;2022-08-19T02:15:54;25.60;;;22.03;;
1416;SDS011;703;51.162;13.574;2022-08-19T02:18:19;27.20;;;21.63;;
1416;SDS011;703;51.162;13.574;2022-08-19T02:20:45;26.20;;;20.97;;
1416;SDS011;703;51.162;13.574;2022-08-19T02:23:12;25.70;;;20.37;;
1416;SDS011;703;51.162;13.574;2022-08-19T02:25:40;28.13;;;22.80;;
1416;SDS011;703;51.162;13.574;2022-08-19T02:28:06;27.40;;;21.60;;
1416;SDS011;703;51.162;13.574;2022-08-19T02:30:32;25.70;;;22.73;;
1416;SDS011;703;51.162;13.574;2022-08-19T02:32:57;24.57;;;18.57;;
1416;SDS011;703;51.162;13.574;2022-08-19T02:35:23;23.93;;;19.30;;
1416;SDS011;703;51.162;13.574;2022-08-19T02:37:49;25.23;;;19.03;;
1416;SDS011;703;51.162;13.574;2022-08-19T02:40:33;28.07;;;21.10;;
1416;SDS011;703;51.162;13.574;2022-08-19T02:43:04;24.53;;;19.97;;
1416;SDS011;703;51.162;13.574;2022-08-19T02:45:36;26.20;;;21.90;;
1416;SDS011;703;51.162;13.574;2022-08-19T02:48:03;25.47;;;20.97;;
1416;SDS011;703;51.162;13.574;2022-08-19T02:50:30;26.80;;;21.47;;
1416;SDS011;703;51.162;13.574;2022-08-19T02:52:56;23.17;;;18.70;;
1416;SDS011;703;51.162;13.574;2022-08-19T02:55:22;23.80;;;19.30;;
1416;SDS011;703;51.162;13.574;2022-08-19T02:57:48;24.50;;;18.40;;
1416;SDS011;703;51.162;13.574;2022-08-19T03:00:14;23.73;;;18.03;;
1416;SDS011;703;51.162;13.574;2022-08-19T03:02:40;26.27;;;21.13;;
1416;SDS011;703;51.162;13.574;2022-08-19T03:05:06;22.80;;;18.63;;
1416;SDS011;703;51.162;13.574;2022-08-19T03:07:34;25.17;;;21.10;;
1416;SDS011;703;51.162;13.574;2022-08-19T03:10:01;23.07;;;19.13;;
1416;SDS011;703;51.162;13.574;2022-08-19T03:12:27;22.90;;;17.60;;
1416;SDS011;703;51.162;13.574;2022-08-19T03:14:53;24.90;;;20.60;;
1416;SDS011;703;51.162;13.574;2022-08-19T03:17:19;23.40;;;18.53;;
1416;SDS011;703;51.162;13.574;2022-08-19T03:19:45;24.73;;;19.60;;
1416;SDS011;703;51.162;13.574;2022-08-19T03:22:10;22.77;;;18.33;;
1416;SDS011;703;51.162;13.574;2022-08-19T03:24:37;25.50;;;18.70;;
1416;SDS011;703;51.162;13.574;2022-08-19T03:27:03;20.83;;;16.83;;
1416;SDS011;703;51.162;13.574;2022-08-19T03:29:30;26.70;;;19.37;;
1416;SDS011;703;51.162;13.574;2022-08-19T03:32:00;25.37;;;19.43;;
1416;SDS011;703;51.162;13.574;2022-08-19T03:34:29;22.67;;;18.63;;
1416;SDS011;703;51.162;13.574;2022-08-19T03:36:57;25.20;;;18.40;;
1416;SDS011;703;51.162;13.574;2022-08-19T03:39:25;25.40;;;18.00;;
1416;SDS011;703;51.162;13.574;2022-08-19T03:41:52;23.03;;;17.93;;
1416;SDS011;703;51.162;13.574;2022-08-19T03:44:21;23.57;;;18.00;;
1416;SDS011;703;51.162;13.574;2022-08-19T03:46:48;22.80;;;18.03;;
1416;SDS011;703;51.162;13.574;2022-08-19T03:49:20;23.17;;;19.30;;
1416;SDS011;703;51.162;13.574;2022-08-19T03:51:49;23.00;;;19.77;;
1416;SDS011;703;51.162;13.574;2022-08-19T03:54:16;22.57;;;18.97;;
1416;SDS011;703;51.162;13.574;2022-08-19T03:56:46;23.60;;;19.87;;
1416;SDS011;703;51.162;13.574;2022-08-19T03:59:15;25.60;;;18.00;;
1416;SDS011;703;51.162;13.574;2022-08-19T04:01:42;24.27;;;19.27;;
1416;SDS011;703;51.162;13.574;2022-08-19T04:04:08;23.00;;;18.03;;
1416;SDS011;703;51.162;13.574;2022-08-19T04:06:35;26.27;;;18.60;;
1416;SDS011;703;51.162;13.574;2022-08-19T04:09:03;23.60;;;18.10;;
1416;SDS011;703;51.162;13.574;2022-08-19T04:11:37;22.60;;;17.30;;
1416;SDS011;703;51.162;13.574;2022-08-19T04:14:07;26.93;;;19.63;;
1416;SDS011;703;51.162;13.574;2022-08-19T04:16:38;23.80;;;19.20;;
1416;SDS011;703;51.162;13.574;2022-08-19T04:19:04;22.37;;;17.63;;
1416;SDS011;703;51.162;13.574;2022-08-19T04:21:31;21.77;;;17.37;;
1416;SDS011;703;51.162;13.574;2022-08-19T04:23:58;26.87;;;20.40;;
1416;SDS011;703;51.162;13.574;2022-08-19T04:26:26;23.57;;;19.87;;
1416;SDS011;703;51.162;13.574;2022-08-19T04:28:53;23.50;;;19.37;;
1416;SDS011;703;51.162;13.574;2022-08-19T04:31:21;24.20;;;17.23;;
1416;SDS011;703;51.162;13.574;2022-08-19T04:33:50;22.87;;;18.07;;
1416;SDS011;703;51.162;13.574;2022-08-19T04:36:22;23.37;;;19.67;;
1416;SDS011;703;51.162;13.574;2022-08-19T04:38:52;26.20;;;22.13;;
1416;SDS011;703;51.162;13.574;2022-08-19T04:41:20;23.67;;;18.90;;
1416;SDS011;703;51.162;13.574;2022-08-19T04:44:04;23.47;;;18.67;;
1416;SDS011;703;51.162;13.574;2022-08-19T04:46:30;24.33;;;20.10;;
1416;SDS011;703;51.162;13.574;2022-08-19T04:48:57;26.00;;;19.43;;
1416;SDS011;703;51.162;13.574;2022-08-19T04:51:23;21.37;;;15.70;;
1416;SDS011;703;51.162;13.574;2022-08-19T04:53:48;27.40;;;20.40;;
1416;SDS011;703;51.162;13.574;2022-08-19T04:56:16;23.97;;;18.27;;
1416;SDS011;703;51.162;13.574;2022-08-19T04:58:43;23.30;;;19.80;;
1416;SDS011;703;51.162;13.574;2022-08-19T05:01:12;24.50;;;21.23;;
1416;SDS011;703;51.162;13.574;2022-08-19T05:03:39;26.23;;;19.97;;
1416;SDS011;703;51.162;13.574;2022-08-19T05:06:06;23.67;;;18.40;;
1416;SDS011;703;51.162;13.574;2022-08-19T05:08:33;28.03;;;20.70;;
1416;SDS011;703;51.162;13.574;2022-08-19T05:11:09;26.93;;;19.43;;
1416;SDS011;703;51.162;13.574;2022-08-19T05:13:37;23.20;;;17.47;;
1416;SDS011;703;51.162;13.574;2022-08-19T05:16:02;22.27;;;17.83;;
1416;SDS011;703;51.162;13.574;2022-08-19T05:18:28;23.43;;;17.47;;
1416;SDS011;703;51.162;13.574;2022-08-19T05:21:13;25.70;;;19.30;;
1416;SDS011;703;51.162;13.574;2022-08-19T05:24:01;26.83;;;18.10;;
1416;SDS011;703;51.162;13.574;2022-08-19T05:26:27;24.70;;;18.13;;
1416;SDS011;703;51.162;13.574;2022-08-19T05:28:53;25.07;;;19.57;;
1416;SDS011;703;51.162;13.574;2022-08-19T05:31:19;20.30;;;16.07;;
1416;SDS011;703;51.162;13.574;2022-08-19T05:33:45;20.40;;;15.90;;
1416;SDS011;703;51.162;13.574;2022-08-19T05:36:11;25.80;;;17.60;;
1416;SDS011;703;51.162;13.574;2022-08-19T05:38:37;19.63;;;14.27;;
1416;SDS011;703;51.162;13.574;2022-08-19T05:41:07;20.47;;;15.30;;
1416;SDS011;703;51.162;13.574;2022-08-19T05:43:37;20.00;;;15.43;;
1416;SDS011;703;51.162;13.574;2022-08-19T05:46:06;18.33;;;13.07;;
1416;SDS011;703;51.162;13.574;2022-08-19T05:48:33;18.10;;;12.60;;
1416;SDS011;703;51.162;13.574;2022-08-19T05:51:03;16.87;;;11.93;;
1416;SDS011;703;51.162;13.574;2022-08-19T05:53:31;17.70;;;10.47;;
1416;SDS011;703;51.162;13.574;2022-08-19T05:56:02;17.63;;;11.77;;
1416;SDS011;703;51.162;13.574;2022-08-19T05:58:36;17.77;;;12.47;;
1416;SDS011;703;51.162;13.574;2022-08-19T06:01:03;19.77;;;13.10;;
1416;SDS011;703;51.162;13.574;2022-08-19T06:03:34;17.77;;;11.50;;
1416;SDS011;703;51.162;13.574;2022-08-19T06:06:01;18.53;;;12.43;;
1416;SDS011;703;51.162;13.574;2022-08-19T06:08:30;18.30;;;13.23;;
1416;SDS011;703;51.162;13.574;2022-08-19T06:10:56;16.20;;;11.10;;
1416;SDS011;703;51.162;13.574;2022-08-19T06:13:22;20.97;;;13.30;;
1416;SDS011;703;51.162;13.574;2022-08-19T06:15:48;20.60;;;14.73;;
1416;SDS011;703;51.162;13.574;2022-08-19T06:18:14;20.10;;;13.90;;
1416;SDS011;703;51.162;13.574;2022-08-19T06:20:41;23.20;;;14.87;;
1416;SDS011;703;51.162;13.574;2022-08-19T06:23:07;22.67;;;15.57;;
1416;SDS011;703;51.162;13.574;2022-08-19T06:25:33;21.90;;;15.93;;
1416;SDS011;703;51.162;13.574;2022-08-19T06:28:00;21.13;;;15.23;;
1416;SDS011;703;51.162;13.574;2022-08-19T06:30:27;24.40;;;16.53;;
1416;SDS011;703;51.162;13.574;2022-08-19T06:32:53;23.10;;;18.23;;
1416;SDS011;703;51.162;13.574;2022-08-19T06:35:18;26.07;;;18.70;;
1416;SDS011;703;51.162;13.574;2022-08-19T06:37:44;26.73;;;19.00;;
1416;SDS011;703;51.162;13.574;2022-08-19T06:40:10;26.47;;;18.67;;
1416;SDS011;703;51.162;13.574;2022-08-19T06:42:37;25.10;;;17.93;;
1416;SDS011;703;51.162;13.574;2022-08-19T06:45:03;26.07;;;19.37;;
1416;SDS011;703;51.162;13.574;2022-08-19T06:47:31;26.77;;;20.23;;
1416;SDS011;703;51.162;13.574;2022-08-19T06:49:59;22.43;;;16.60;;
1416;SDS011;703;51.162;13.574;2022-08-19T06:52:28;27.03;;;20.77;;
1416;SDS011;703;51.162;13.574;2022-08-19T06:54:58;24.30;;;20.10;;
1416;SDS011;703;51.162;13.574;2022-08-19T06:57:24;26.70;;;21.50;;
1416;SDS011;703;51.162;13.574;2022-08-19T06:59:50;24.67;;;17.90;;
1416;SDS011;703;51.162;13.574;2022-08-19T07:02:17;28.30;;;20.80;;
1416;SDS011;703;51.162;13.574;2022-08-19T07:04:43;24.80;;;19.20;;
1416;SDS011;703;51.162;13.574;2022-08-19T07:07:10;25.10;;;19.80;;
1416;SDS011;703;51.162;13.574;2022-08-19T07:09:38;26.07;;;21.50;;
1416;SDS011;703;51.162;13.574;2022-08-19T07:12:06;26.23;;;20.10;;
1416;SDS011;703;51.162;13.574;2022-08-19T07:14:35;25.90;;;18.80;;
1416;SDS011;703;51.162;13.574;2022-08-19T07:17:05;24.20;;;19.17;;
1416;SDS011;703;51.162;13.574;2022-08-19T07:19:32;27.27;;;19.90;;
1416;SDS011;703;51.162;13.574;2022-08-19T07:22:00;28.37;;;24.20;;
1416;SDS011;703;51.162;13.574;2022-08-19T07:24:28;24.83;;;16.83;;
1416;SDS011;703;51.162;13.574;2022-08-19T07:26:55;25.80;;;19.10;;
1416;SDS011;703;51.162;13.574;2022-08-19T07:29:25;26.10;;;18.00;;
1416;SDS011;703;51.162;13.574;2022-08-19T07:31:51;23.57;;;17.53;;
1416;SDS011;703;51.162;13.574;2022-08-19T07:34:21;24.30;;;18.37;;
1416;SDS011;703;51.162;13.574;2022-08-19T07:36:48;26.50;;;19.00;;
1416;SDS011;703;51.162;13.574;2022-08-19T07:39:16;26.07;;;20.30;;
1416;SDS011;703;51.162;13.574;2022-08-19T07:41:45;25.70;;;18.10;;
1416;SDS011;703;51.162;13.574;2022-08-19T07:44:11;29.63;;;22.50;;
1416;SDS011;703;51.162;13.574;2022-08-19T07:46:40;28.30;;;22.63;;
1416;SDS011;703;51.162;13.574;2022-08-19T07:49:09;27.53;;;21.67;;
1416;SDS011;703;51.162;13.574;2022-08-19T07:51:42;30.20;;;19.10;;
1416;SDS011;703;51.162;13.574;2022-08-19T07:54:09;29.70;;;19.10;;
1416;SDS011;703;51.162;13.574;2022-08-19T07:56:34;29.70;;;20.67;;
1416;SDS011;703;51.162;13.574;2022-08-19T07:59:00;29.40;;;20.77;;
1416;SDS011;703;51.162;13.574;2022-08-19T08:01:26;25.10;;;17.50;;
1416;SDS011;703;51.162;13.574;2022-08-19T08:03:53;25.87;;;20.27;;
1416;SDS011;703;51.162;13.574;2022-08-19T08:06:38;27.50;;;20.27;;
1416;SDS011;703;51.162;13.574;2022-08-19T08:09:23;22.97;;;15.60;;
1416;SDS011;703;51.162;13.574;2022-08-19T08:12:10;25.00;;;19.60;;
1416;SDS011;703;51.162;13.574;2022-08-19T08:14:41;24.53;;;19.37;;
1416;SDS011;703;51.162;13.574;2022-08-19T08:17:10;24.00;;;17.97;;
1416;SDS011;703;51.162;13.574;2022-08-19T08:19:40;23.97;;;18.80;;
1416;SDS011;703;51.162;13.574;2022-08-19T08:22:07;27.93;;;18.97;;
1416;SDS011;703;51.162;13.574;2022-08-19T08:24:33;24.43;;;18.53;;
1416;SDS011;703;51.162;13.574;2022-08-19T08:27:00;23.23;;;17.87;;
1416;SDS011;703;51.162;13.574;2022-08-19T08:29:29;26.00;;;18.70;;
1416;SDS011;703;51.162;13.574;2022-08-19T08:31:58;22.77;;;16.80;;
1416;SDS011;703;51.162;13.574;2022-08-19T08:34:24;23.73;;;18.27;;
1416;SDS011;703;51.162;13.574;2022-08-19T08:36:50;23.87;;;19.00;;
1416;SDS011;703;51.162;13.574;2022-08-19T08:39:17;24.73;;;20.20;;
1416;SDS011;703;51.162;13.574;2022-08-19T08:44:43;24.87;;;19.67;;
1416;SDS011;703;51.162;13.574;2022-08-19T08:47:20;23.37;;;18.10;;
1416;SDS011;703;51.162;13.574;2022-08-19T08:49:50;23.37;;;18.60;;
1416;SDS011;703;51.162;13.574;2022-08-19T08:52:25;27.13;;;18.43;;
1416;SDS011;703;51.162;13.574;2022-08-19T08:54:54;22.40;;;18.63;;
1416;SDS011;703;51.162;13.574;2022-08-19T08:57:27;25.10;;;20.73;;
1416;SDS011;703;51.162;13.574;2022-08-19T09:00:02;23.87;;;18.30;;
1416;SDS011;703;51.162;13.574;2022-08-19T09:02:31;23.27;;;18.87;;
1416;SDS011;703;51.162;13.574;2022-08-19T09:04:57;22.73;;;17.30;;
1416;SDS011;703;51.162;13.574;2022-08-19T09:07:38;26.00;;;19.30;;
1416;SDS011;703;51.162;13.574;2022-08-19T09:10:28;23.40;;;18.97;;
1416;SDS011;703;51.162;13.574;2022-08-19T09:13:11;23.43;;;17.17;;
1416;SDS011;703;51.162;13.574;2022-08-19T09:16:06;22.10;;;17.37;;
1416;SDS011;703;51.162;13.574;2022-08-19T09:18:48;24.43;;;18.40;;
1416;SDS011;703;51.162;13.574;2022-08-19T09:21:19;23.87;;;18.60;;
1416;SDS011;703;51.162;13.574;2022-08-19T09:23:45;23.40;;;17.07;;
1416;SDS011;703;51.162;13.574;2022-08-19T09:26:13;22.97;;;17.90;;
1416;SDS011;703;51.162;13.574;2022-08-19T09:28:41;23.10;;;19.27;;
1416;SDS011;703;51.162;13.574;2022-08-19T09:31:11;24.00;;;19.47;;
1416;SDS011;703;51.162;13.574;2022-08-19T09:33:39;20.33;;;14.80;;
1416;SDS011;703;51.162;13.574;2022-08-19T09:36:06;22.13;;;16.93;;
1416;SDS011;703;51.162;13.574;2022-08-19T09:38:34;19.10;;;13.93;;
1416;SDS011;703;51.162;13.574;2022-08-19T09:41:04;18.97;;;14.10;;
1416;SDS011;703;51.162;13.574;2022-08-19T09:43:36;19.93;;;13.53;;
1416;SDS011;703;51.162;13.574;2022-08-19T09:46:03;21.20;;;14.57;;
1416;SDS011;703;51.162;13.574;2022-08-19T09:48:31;20.63;;;15.00;;
1416;SDS011;703;51.162;13.574;2022-08-19T09:53:30;20.63;;;14.10;;
1416;SDS011;703;51.162;13.574;2022-08-19T09:55:56;18.57;;;13.57;;
1416;SDS011;703;51.162;13.574;2022-08-19T09:58:22;22.50;;;14.57;;
1416;SDS011;703;51.162;13.574;2022-08-19T10:00:52;20.30;;;13.53;;
1416;SDS011;703;51.162;13.574;2022-08-19T10:03:19;21.43;;;14.57;;
1416;SDS011;703;51.162;13.574;2022-08-19T10:05:45;21.07;;;12.90;;
1416;SDS011;703;51.162;13.574;2022-08-19T10:08:14;18.07;;;13.13;;
1416;SDS011;703;51.162;13.574;2022-08-19T10:10:42;17.50;;;12.63;;
1416;SDS011;703;51.162;13.574;2022-08-19T10:13:09;18.00;;;13.50;;
1416;SDS011;703;51.162;13.574;2022-08-19T10:15:34;17.40;;;12.10;;
1416;SDS011;703;51.162;13.574;2022-08-19T10:18:00;20.00;;;14.57;;
1416;SDS011;703;51.162;13.574;2022-08-19T10:20:26;20.00;;;14.00;;
1416;SDS011;703;51.162;13.574;2022-08-19T10:22:52;18.87;;;13.53;;
1416;SDS011;703;51.162;13.574;2022-08-19T10:25:17;19.17;;;14.00;;
1416;SDS011;703;51.162;13.574;2022-08-19T10:27:43;22.17;;;16.43;;
1416;SDS011;703;51.162;13.574;2022-08-19T10:30:09;19.57;;;15.30;;
1416;SDS011;703;51.162;13.574;2022-08-19T10:32:35;19.40;;;14.27;;
1416;SDS011;703;51.162;13.574;2022-08-19T10:35:01;21.10;;;15.30;;
1416;SDS011;703;51.162;13.574;2022-08-19T10:37:32;20.30;;;14.97;;
1416;SDS011;703;51.162;13.574;2022-08-19T10:39:59;20.57;;;15.20;;
1416;SDS011;703;51.162;13.574;2022-08-19T10:42:26;19.83;;;14.80;;
1416;SDS011;703;51.162;13.574;2022-08-19T10:44:52;19.90;;;13.80;;
1416;SDS011;703;51.162;13.574;2022-08-19T10:47:18;21.50;;;14.90;;
1416;SDS011;703;51.162;13.574;2022-08-19T10:49:43;18.87;;;14.07;;
1416;SDS011;703;51.162;13.574;2022-08-19T10:52:27;20.40;;;13.55;;
1416;SDS011;703;51.162;13.574;2022-08-19T10:55:00;19.10;;;14.53;;
1416;SDS011;703;51.162;13.574;2022-08-19T10:57:48;18.10;;;12.53;;
1416;SDS011;703;51.162;13.574;2022-08-19T11:00:14;20.70;;;14.80;;
1416;SDS011;703;51.162;13.574;2022-08-19T11:02:40;19.17;;;14.23;;
1416;SDS011;703;51.162;13.574;2022-08-19T11:05:07;19.87;;;13.60;;
1416;SDS011;703;51.162;13.574;2022-08-19T11:07:35;22.87;;;16.40;;
1416;SDS011;703;51.162;13.574;2022-08-19T11:10:03;22.40;;;16.10;;
1416;SDS011;703;51.162;13.574;2022-08-19T11:12:29;21.30;;;15.40;;
1416;SDS011;703;51.162;13.574;2022-08-19T11:14:54;20.03;;;14.23;;
1416;SDS011;703;51.162;13.574;2022-08-19T11:17:21;20.73;;;15.67;;
1416;SDS011;703;51.162;13.574;2022-08-19T11:19:48;23.60;;;17.93;;
1416;SDS011;703;51.162;13.574;2022-08-19T11:22:14;25.60;;;18.83;;
1416;SDS011;703;51.162;13.574;2022-08-19T11:24:40;28.33;;;20.87;;
1416;SDS011;703;51.162;13.574;2022-08-19T11:27:07;29.47;;;21.03;;
1416;SDS011;703;51.162;13.574;2022-08-19T11:29:34;37.13;;;27.90;;
1416;SDS011;703;51.162;13.574;2022-08-19T11:32:06;32.90;;;25.17;;
1416;SDS011;703;51.162;13.574;2022-08-19T11:34:34;33.10;;;25.73;;
1416;SDS011;703;51.162;13.574;2022-08-19T11:37:01;36.83;;;27.77;;
1416;SDS011;703;51.162;13.574;2022-08-19T11:39:29;36.63;;;27.57;;
1416;SDS011;703;51.162;13.574;2022-08-19T11:41:59;35.60;;;25.70;;
1416;SDS011;703;51.162;13.574;2022-08-19T11:44:27;36.70;;;29.83;;
1416;SDS011;703;51.162;13.574;2022-08-19T11:46:55;33.90;;;26.70;;
1416;SDS011;703;51.162;13.574;2022-08-19T11:49:21;33.60;;;25.43;;
1416;SDS011;703;51.162;13.574;2022-08-19T11:51:47;34.03;;;25.70;;
1416;SDS011;703;51.162;13.574;2022-08-19T11:54:15;38.73;;;26.47;;
1416;SDS011;703;51.162;13.574;2022-08-19T11:56:42;32.73;;;25.13;;
1416;SDS011;703;51.162;13.574;2022-08-19T11:59:09;31.73;;;25.70;;
1416;SDS011;703;51.162;13.574;2022-08-19T12:01:35;32.50;;;24.10;;
1416;SDS011;703;51.162;13.574;2022-08-19T12:04:01;33.83;;;24.47;;
1416;SDS011;703;51.162;13.574;2022-08-19T12:06:30;41.93;;;26.87;;
1416;SDS011;703;51.162;13.574;2022-08-19T12:08:58;31.60;;;24.43;;
1416;SDS011;703;51.162;13.574;2022-08-19T12:11:25;29.63;;;25.10;;
1416;SDS011;703;51.162;13.574;2022-08-19T12:13:51;28.40;;;23.87;;
1416;SDS011;703;51.162;13.574;2022-08-19T12:16:19;29.00;;;22.20;;
1416;SDS011;703;51.162;13.574;2022-08-19T12:18:48;27.83;;;21.50;;
1416;SDS011;703;51.162;13.574;2022-08-19T12:21:17;25.47;;;21.07;;
1416;SDS011;703;51.162;13.574;2022-08-19T12:23:46;26.80;;;19.70;;
1416;SDS011;703;51.162;13.574;2022-08-19T12:26:13;27.00;;;19.53;;
1416;SDS011;703;51.162;13.574;2022-08-19T12:28:39;27.03;;;20.07;;
1416;SDS011;703;51.162;13.574;2022-08-19T12:31:05;36.33;;;21.63;;
1416;SDS011;703;51.162;13.574;2022-08-19T12:33:31;26.50;;;20.80;;
1416;SDS011;703;51.162;13.574;2022-08-19T12:36:01;28.70;;;21.77;;
1416;SDS011;703;51.162;13.574;2022-08-19T12:38:29;25.67;;;20.07;;
1416;SDS011;703;51.162;13.574;2022-08-19T12:40:55;28.90;;;21.10;;
1416;SDS011;703;51.162;13.574;2022-08-19T12:43:21;26.43;;;20.87;;
1416;SDS011;703;51.162;13.574;2022-08-19T12:45:46;26.47;;;20.87;;
1416;SDS011;703;51.162;13.574;2022-08-19T12:48:13;23.77;;;17.40;;
1416;SDS011;703;51.162;13.574;2022-08-19T12:50:43;27.20;;;20.60;;
1416;SDS011;703;51.162;13.574;2022-08-19T12:53:13;24.83;;;19.20;;
1416;SDS011;703;51.162;13.574;2022-08-19T12:55:38;25.07;;;18.80;;
1416;SDS011;703;51.162;13.574;2022-08-19T12:58:04;27.00;;;21.30;;
1416;SDS011;703;51.162;13.574;2022-08-19T13:00:30;26.57;;;23.07;;
1416;SDS011;703;51.162;13.574;2022-08-19T13:02:57;25.67;;;20.40;;
1416;SDS011;703;51.162;13.574;2022-08-19T13:05:25;30.20;;;22.23;;
1416;SDS011;703;51.162;13.574;2022-08-19T13:07:53;30.93;;;22.93;;
1416;SDS011;703;51.162;13.574;2022-08-19T13:10:28;33.57;;;24.20;;
1416;SDS011;703;51.162;13.574;2022-08-19T13:12:59;34.60;;;28.83;;
1416;SDS011;703;51.162;13.574;2022-08-19T13:15:27;29.73;;;23.80;;
1416;SDS011;703;51.162;13.574;2022-08-19T13:17:54;31.73;;;25.93;;
1416;SDS011;703;51.162;13.574;2022-08-19T13:20:21;28.17;;;22.60;;
1416;SDS011;703;51.162;13.574;2022-08-19T13:22:47;30.97;;;21.60;;
1416;SDS011;703;51.162;13.574;2022-08-19T13:25:13;31.60;;;21.80;;
1416;SDS011;703;51.162;13.574;2022-08-19T13:27:42;38.73;;;27.30;;
1416;SDS011;703;51.162;13.574;2022-08-19T13:30:09;36.03;;;24.77;;
1416;SDS011;703;51.162;13.574;2022-08-19T13:32:55;32.73;;;25.97;;
1416;SDS011;703;51.162;13.574;2022-08-19T13:35:36;34.53;;;28.07;;
1416;SDS011;703;51.162;13.574;2022-08-19T13:38:02;30.40;;;24.30;;
1416;SDS011;703;51.162;13.574;2022-08-19T13:40:30;28.27;;;23.73;;
1416;SDS011;703;51.162;13.574;2022-08-19T13:42:58;29.03;;;24.20;;
1416;SDS011;703;51.162;13.574;2022-08-19T13:45:26;32.37;;;24.97;;
1416;SDS011;703;51.162;13.574;2022-08-19T13:47:54;31.70;;;27.87;;
1416;SDS011;703;51.162;13.574;2022-08-19T13:50:26;32.13;;;24.73;;
1416;SDS011;703;51.162;13.574;2022-08-19T13:52:53;35.10;;;27.33;;
1416;SDS011;703;51.162;13.574;2022-08-19T13:55:20;27.33;;;22.27;;
1416;SDS011;703;51.162;13.574;2022-08-19T13:57:53;33.53;;;25.90;;
1416;SDS011;703;51.162;13.574;2022-08-19T14:00:21;33.43;;;26.17;;
1416;SDS011;703;51.162;13.574;2022-08-19T14:02:51;33.57;;;26.53;;
1416;SDS011;703;51.162;13.574;2022-08-19T14:05:19;34.53;;;30.40;;
1416;SDS011;703;51.162;13.574;2022-08-19T14:07:45;33.80;;;25.37;;
1416;SDS011;703;51.162;13.574;2022-08-19T14:10:12;32.80;;;25.83;;
1416;SDS011;703;51.162;13.574;2022-08-19T14:12:40;30.97;;;25.37;;
1416;SDS011;703;51.162;13.574;2022-08-19T14:15:06;33.90;;;29.00;;
1416;SDS011;703;51.162;13.574;2022-08-19T14:17:33;30.87;;;23.70;;
1416;SDS011;703;51.162;13.574;2022-08-19T14:20:03;31.30;;;25.27;;
1416;SDS011;703;51.162;13.574;2022-08-19T14:22:34;32.23;;;26.60;;
1416;SDS011;703;51.162;13.574;2022-08-19T14:25:01;34.23;;;27.67;;
1416;SDS011;703;51.162;13.574;2022-08-19T14:27:29;41.63;;;29.93;;
1416;SDS011;703;51.162;13.574;2022-08-19T14:29:57;33.73;;;27.97;;
1416;SDS011;703;51.162;13.574;2022-08-19T14:32:22;36.30;;;31.30;;
1416;SDS011;703;51.162;13.574;2022-08-19T14:34:51;34.90;;;29.67;;
1416;SDS011;703;51.162;13.574;2022-08-19T14:37:17;35.80;;;29.20;;
1416;SDS011;703;51.162;13.574;2022-08-19T14:39:43;33.03;;;26.73;;
1416;SDS011;703;51.162;13.574;2022-08-19T14:42:12;35.20;;;27.20;;
1416;SDS011;703;51.162;13.574;2022-08-19T14:44:39;29.80;;;25.50;;
1416;SDS011;703;51.162;13.574;2022-08-19T14:47:05;37.13;;;28.63;;
1416;SDS011;703;51.162;13.574;2022-08-19T14:49:32;34.67;;;25.37;;
1416;SDS011;703;51.162;13.574;2022-08-19T14:51:58;32.83;;;27.00;;
1416;SDS011;703;51.162;13.574;2022-08-19T14:54:24;33.33;;;27.13;;
1416;SDS011;703;51.162;13.574;2022-08-19T14:56:50;31.67;;;27.07;;
1416;SDS011;703;51.162;13.574;2022-08-19T14:59:16;34.77;;;26.90;;